createdAt,value
2022-08-08T00:01:09.298Z,7.10
2022-08-08T00:04:02.509Z,6.82
2022-08-08T00:06:44.288Z,6.88
2022-08-08T00:09:17.746Z,7.25
2022-08-08T00:12:07.134Z,6.65
2022-08-08T00:14:57.010Z,5.43
2022-08-08T00:18:02.385Z,6.20
2022-08-08T00:20:52.600Z,6.70
2022-08-08T00:23:47.786Z,5.50
2022-08-08T00:26:35.548Z,5.68
2022-08-08T00:29:11.239Z,5.03
2022-08-08T00:32:15.349Z,5.60
2022-08-08T00:35:20.252Z,5.88
2022-08-08T00:38:16.813Z,5.45
2022-08-08T00:41:45.169Z,5.30
2022-08-08T00:45:00.484Z,5.38
2022-08-08T00:48:04.870Z,5.38
2022-08-08T00:50:40.865Z,5.45
2022-08-08T00:53:56.989Z,5.28
2022-08-08T00:56:58.345Z,5.65
2022-08-08T01:00:10.659Z,5.30
2022-08-08T01:03:59.491Z,4.95
2022-08-08T01:06:02.297Z,8.38
2022-08-08T01:09:36.138Z,5.43
2022-08-08T01:12:11.920Z,5.25
2022-08-08T01:15:03.484Z,5.40
2022-08-08T01:18:50.479Z,5.15
2022-08-08T01:21:15.050Z,5.88
2022-08-08T01:24:39.151Z,6.03
2022-08-08T01:27:33.249Z,6.50
2022-08-08T01:30:39.828Z,5.35
2022-08-08T01:33:23.883Z,5.38
2022-08-08T01:36:23.001Z,5.03
2022-08-08T01:39:04.319Z,6.85
2022-08-08T01:41:34.371Z,5.88
2022-08-08T01:44:26.671Z,5.13
2022-08-08T01:47:03.351Z,5.75
2022-08-08T01:50:19.912Z,5.45
2022-08-08T01:55:08.594Z,6.72
2022-08-08T01:56:30.657Z,5.13
2022-08-08T01:59:10.609Z,5.45
2022-08-08T02:02:04.854Z,5.28
2022-08-08T02:04:32.289Z,4.88
2022-08-08T02:07:16.557Z,5.45
2022-08-08T02:10:03.325Z,5.28
2022-08-08T02:12:51.467Z,5.85
2022-08-08T02:15:47.811Z,5.28
2022-08-08T02:18:39.001Z,5.40
2022-08-08T02:21:56.564Z,6.65
2022-08-08T02:24:28.871Z,6.35
2022-08-08T02:27:21.380Z,5.57
2022-08-08T02:30:21.212Z,6.00
2022-08-08T02:33:06.908Z,5.13
2022-08-08T02:36:05.082Z,5.68
2022-08-08T02:38:32.245Z,5.72
2022-08-08T02:41:59.423Z,5.45
2022-08-08T02:44:42.463Z,5.43
2022-08-08T02:47:22.580Z,5.88
2022-08-08T02:50:37.273Z,5.40
2022-08-08T02:53:42.099Z,5.32
2022-08-08T02:56:34.594Z,4.70
2022-08-08T02:59:58.001Z,5.15
2022-08-08T03:02:57.443Z,5.65
2022-08-08T03:05:51.493Z,5.97
2022-08-08T03:08:22.408Z,5.60
2022-08-08T03:11:13.895Z,5.47
2022-08-08T03:15:59.701Z,6.22
2022-08-08T03:17:39.654Z,5.30
2022-08-08T03:20:07.857Z,6.22
2022-08-08T03:22:45.258Z,7.65
2022-08-08T03:25:17.803Z,5.82
2022-08-08T03:28:00.468Z,5.45
2022-08-08T03:30:27.965Z,5.47
2022-08-08T03:33:55.863Z,5.53
2022-08-08T03:36:01.204Z,6.57
2022-08-08T03:38:54.151Z,6.45
2022-08-08T03:42:13.378Z,4.63
2022-08-08T03:44:02.098Z,5.20
2022-08-08T03:46:32.585Z,5.82
2022-08-08T03:49:15.266Z,5.47
2022-08-08T03:51:53.505Z,5.40
2022-08-08T03:54:40.646Z,4.95
2022-08-08T03:58:31.128Z,5.20
2022-08-08T04:00:11.465Z,5.72
2022-08-08T04:02:51.882Z,5.47
2022-08-08T04:05:22.792Z,5.60
2022-08-08T04:07:56.237Z,5.60
2022-08-08T04:10:25.974Z,5.65
2022-08-08T04:12:59.843Z,5.20
2022-08-08T04:15:30.507Z,7.47
2022-08-08T04:18:05.980Z,4.78
2022-08-08T04:20:32.891Z,4.75
2022-08-08T04:22:59.800Z,6.82
2022-08-08T04:25:32.989Z,5.68
2022-08-08T04:28:36.780Z,5.38
2022-08-08T04:30:55.163Z,6.22
2022-08-08T04:33:24.351Z,7.53
2022-08-08T04:35:53.719Z,6.72
2022-08-08T04:38:22.907Z,6.90
2022-08-08T04:40:54.351Z,6.22
2022-08-08T04:45:59.476Z,7.25
2022-08-08T04:48:26.317Z,6.45
2022-08-08T04:50:53.231Z,5.72
2022-08-08T04:54:27.487Z,5.68
2022-08-08T04:56:07.342Z,5.20
2022-08-08T04:58:34.566Z,5.60
2022-08-08T05:01:05.857Z,5.07
2022-08-08T05:04:09.918Z,6.88
2022-08-08T05:06:28.153Z,5.40
2022-08-08T05:08:56.406Z,10.25
2022-08-08T05:11:30.384Z,4.95
2022-08-08T05:14:07.189Z,5.45
2022-08-08T05:16:51.937Z,4.90
2022-08-08T05:20:09.940Z,4.63
2022-08-08T05:22:09.809Z,4.15
2022-08-08T05:24:38.575Z,4.65
2022-08-08T05:27:06.073Z,4.22
2022-08-08T05:29:36.071Z,5.35
2022-08-08T05:32:07.454Z,3.90
2022-08-08T05:34:51.534Z,5.30
2022-08-08T05:37:51.737Z,3.45
2022-08-08T05:40:17.780Z,5.45
2022-08-08T05:42:54.942Z,6.32
2022-08-08T05:45:30.734Z,3.25
2022-08-08T05:48:08.975Z,4.10
2022-08-08T05:50:38.772Z,4.28
2022-08-08T05:53:53.612Z,4.85
2022-08-08T05:56:09.784Z,4.13
2022-08-08T05:58:56.967Z,3.10
2022-08-08T06:01:57.488Z,4.50
2022-08-08T06:04:22.667Z,4.82
2022-08-08T06:06:53.701Z,4.80
2022-08-08T06:09:59.136Z,3.13
2022-08-08T06:12:29.966Z,2.92
2022-08-08T06:15:01.095Z,6.38
2022-08-08T06:18:18.309Z,4.10
2022-08-08T06:20:19.655Z,3.67
2022-08-08T06:22:49.309Z,3.47
2022-08-08T06:25:18.135Z,4.55
2022-08-08T06:27:49.110Z,5.13
2022-08-08T06:30:20.384Z,3.70
2022-08-08T06:33:00.982Z,3.67
2022-08-08T06:36:06.267Z,2.45
2022-08-08T06:38:27.775Z,2.60
2022-08-08T06:41:04.128Z,3.45
2022-08-08T06:43:37.596Z,3.03
2022-08-08T06:46:08.800Z,3.20
2022-08-08T06:48:36.576Z,4.68
2022-08-08T06:51:07.854Z,4.60
2022-08-08T06:53:39.187Z,4.03
2022-08-08T06:56:09.025Z,4.20
2022-08-08T06:58:36.836Z,4.37
2022-08-08T07:01:24.216Z,3.45
2022-08-08T07:04:36.823Z,4.72
2022-08-08T07:07:00.319Z,2.70
2022-08-08T07:09:41.500Z,4.65
2022-08-08T07:12:16.716Z,3.38
2022-08-08T07:14:51.632Z,4.10
2022-08-08T07:17:25.067Z,6.38
2022-08-08T07:20:11.185Z,6.13
2022-08-08T07:22:45.304Z,6.20
2022-08-08T07:25:17.420Z,5.00
2022-08-08T07:27:54.493Z,5.82
2022-08-08T07:30:30.899Z,3.78
2022-08-08T07:32:59.517Z,4.78
2022-08-08T07:35:29.091Z,4.75
2022-08-08T07:40:46.542Z,4.88
2022-08-08T07:43:14.874Z,6.25
2022-08-08T07:46:04.731Z,5.95
2022-08-08T07:48:30.359Z,5.43
2022-08-08T07:51:00.754Z,3.80
2022-08-08T07:54:02.167Z,6.22
2022-08-08T07:56:35.651Z,5.03
2022-08-08T07:59:10.436Z,3.95
2022-08-08T08:02:36.437Z,3.53
2022-08-08T08:04:39.902Z,2.50
2022-08-08T08:07:08.817Z,2.85
2022-08-08T08:09:40.285Z,2.78
2022-08-08T08:12:09.465Z,4.32
2022-08-08T08:15:02.949Z,5.15
2022-08-08T08:17:36.376Z,4.40
2022-08-08T08:20:16.168Z,3.78
2022-08-08T08:22:43.624Z,3.67
2022-08-08T08:25:10.556Z,4.25
2022-08-08T08:27:37.502Z,3.58
2022-08-08T08:30:05.848Z,4.80
2022-08-08T08:35:08.506Z,3.65
2022-08-08T08:37:58.940Z,4.93
2022-08-08T08:40:23.820Z,4.00
2022-08-08T08:42:53.550Z,3.95
2022-08-08T08:45:23.651Z,2.50
2022-08-08T08:47:54.766Z,3.47
2022-08-08T08:50:33.258Z,3.08
2022-08-08T08:53:28.240Z,5.15
2022-08-08T08:55:56.078Z,5.25
2022-08-08T08:58:46.709Z,3.25
2022-08-08T09:01:23.845Z,2.72
2022-08-08T09:03:51.700Z,6.22
2022-08-08T09:06:33.979Z,2.75
2022-08-08T09:09:26.381Z,2.47
2022-08-08T09:12:08.090Z,6.10
2022-08-08T09:14:35.655Z,4.90
2022-08-08T09:17:14.254Z,4.10
2022-08-08T09:21:59.847Z,2.60
2022-08-08T09:22:34.486Z,3.22
2022-08-08T09:25:02.125Z,5.05
2022-08-08T09:27:42.160Z,2.90
2022-08-08T09:30:20.042Z,4.32
2022-08-08T09:33:12.705Z,4.00
2022-08-08T09:35:49.824Z,3.60
2022-08-08T09:38:53.450Z,4.88
2022-08-08T09:42:14.259Z,2.78
2022-08-08T09:44:54.499Z,4.53
2022-08-08T09:48:02.472Z,4.22
2022-08-08T09:50:14.575Z,3.78
2022-08-08T09:55:51.350Z,2.67
2022-08-08T09:58:26.092Z,2.17
2022-08-08T10:01:15.217Z,5.70
2022-08-08T10:04:02.465Z,3.08
2022-08-08T10:06:32.669Z,2.22
2022-08-08T10:09:02.711Z,4.35
2022-08-08T10:12:27.355Z,3.95
2022-08-08T10:14:28.512Z,2.65
2022-08-08T10:17:56.526Z,2.45
2022-08-08T10:20:00.715Z,5.47
2022-08-08T10:22:30.002Z,3.00
2022-08-08T10:25:05.375Z,5.47
2022-08-08T10:27:42.062Z,3.05
2022-08-08T10:30:16.222Z,4.30
2022-08-08T10:33:00.303Z,2.78
2022-08-08T10:36:09.490Z,4.97
2022-08-08T10:38:16.932Z,3.97
2022-08-08T10:40:45.933Z,2.85
2022-08-08T10:43:13.146Z,3.40
2022-08-08T10:45:55.557Z,7.70
2022-08-08T10:48:57.714Z,3.47
2022-08-08T10:51:31.212Z,2.72
2022-08-08T10:54:02.461Z,4.28
2022-08-08T10:56:36.318Z,4.00
2022-08-08T10:59:10.219Z,8.23
2022-08-08T11:01:49.331Z,3.92
2022-08-08T11:04:29.981Z,3.78
2022-08-08T11:07:06.902Z,3.03
2022-08-08T11:09:34.619Z,2.78
2022-08-08T11:12:13.515Z,3.78
2022-08-08T11:14:51.810Z,4.03
2022-08-08T11:17:58.855Z,3.60
2022-08-08T11:20:12.482Z,3.05
2022-08-08T11:22:41.344Z,3.50
2022-08-08T11:25:14.045Z,2.97
2022-08-08T11:27:44.564Z,3.50
2022-08-08T11:30:20.277Z,4.60
2022-08-08T11:32:54.841Z,3.47
2022-08-08T11:35:27.049Z,5.10
2022-08-08T11:38:36.711Z,3.95
2022-08-08T11:40:52.981Z,8.00
2022-08-08T11:43:21.687Z,6.55
2022-08-08T11:46:17.596Z,5.40
2022-08-08T11:48:39.815Z,2.42
2022-08-08T11:51:30.294Z,4.45
2022-08-08T11:54:01.300Z,3.08
2022-08-08T11:56:34.652Z,6.72
2022-08-08T11:59:12.022Z,4.45
2022-08-08T12:01:39.223Z,3.97
2022-08-08T12:04:09.234Z,6.85
2022-08-08T12:06:39.355Z,5.10
2022-08-08T12:09:17.107Z,5.80
2022-08-08T12:11:45.862Z,2.70
2022-08-08T12:14:23.308Z,5.35
2022-08-08T12:16:52.460Z,5.53
2022-08-08T12:19:31.478Z,2.83
2022-08-08T12:22:13.215Z,4.05
2022-08-08T12:24:53.686Z,3.47
2022-08-08T12:27:26.841Z,3.30
2022-08-08T12:30:02.494Z,9.77
2022-08-08T12:32:42.021Z,6.30
2022-08-08T12:35:21.823Z,3.63
2022-08-08T12:38:07.638Z,5.00
2022-08-08T12:40:57.096Z,3.58
2022-08-08T12:43:32.730Z,2.72
2022-08-08T12:46:19.249Z,2.40
2022-08-08T12:49:22.297Z,3.15
2022-08-08T12:51:50.123Z,2.92
2022-08-08T12:54:35.959Z,5.75
2022-08-08T12:57:24.403Z,2.45
2022-08-08T13:00:05.392Z,2.78
2022-08-08T13:02:51.778Z,6.65
2022-08-08T13:05:27.033Z,2.38
2022-08-08T13:08:20.371Z,3.63
2022-08-08T13:10:56.728Z,2.40
2022-08-08T13:13:34.859Z,4.05
2022-08-08T13:16:36.439Z,5.78
2022-08-08T13:19:11.663Z,2.80
2022-08-08T13:21:55.535Z,2.63
2022-08-08T13:24:41.927Z,4.13
2022-08-08T13:27:38.288Z,6.20
2022-08-08T13:30:06.574Z,3.10
2022-08-08T13:32:39.563Z,8.30
2022-08-08T13:35:24.312Z,4.40
2022-08-08T13:38:06.594Z,4.00
2022-08-08T13:40:35.209Z,6.40
2022-08-08T13:43:03.649Z,2.97
2022-08-08T13:45:31.309Z,4.80
2022-08-08T13:48:03.064Z,5.53
2022-08-08T13:50:49.021Z,4.40
2022-08-08T13:53:36.105Z,3.97
2022-08-08T13:56:11.552Z,5.88
2022-08-08T13:58:56.264Z,3.67
2022-08-08T14:01:32.894Z,6.93
2022-08-08T14:04:23.174Z,5.45
2022-08-08T14:07:00.532Z,3.60
2022-08-08T14:10:05.604Z,3.33
2022-08-08T14:12:29.638Z,3.17
2022-08-08T14:14:57.164Z,3.80
2022-08-08T14:17:57.781Z,4.75
2022-08-08T14:20:15.763Z,5.47
2022-08-08T14:23:20.802Z,5.18
2022-08-08T14:26:03.929Z,2.75
2022-08-08T14:28:37.589Z,3.58
2022-08-08T14:31:09.401Z,2.65
2022-08-08T14:33:36.844Z,3.03
2022-08-08T14:36:06.823Z,2.92
2022-08-08T14:38:52.340Z,2.85
2022-08-08T14:41:45.582Z,6.32
2022-08-08T14:44:16.969Z,2.83
2022-08-08T14:47:01.102Z,7.35
2022-08-08T14:49:51.828Z,2.47
2022-08-08T14:52:21.797Z,2.15
2022-08-08T14:54:49.477Z,6.07
2022-08-08T14:57:17.058Z,5.43
2022-08-08T14:59:50.900Z,5.05
2022-08-08T15:02:25.273Z,3.25
2022-08-08T15:04:52.845Z,2.20
2022-08-08T15:07:24.323Z,2.85
2022-08-08T15:10:04.881Z,2.30
2022-08-08T15:12:36.399Z,2.75
2022-08-08T15:15:06.926Z,2.80
2022-08-08T15:17:37.758Z,6.68
2022-08-08T15:20:12.508Z,5.40
2022-08-08T15:22:42.475Z,3.63
2022-08-08T15:28:03.577Z,2.60
2022-08-08T15:30:43.647Z,3.38
2022-08-08T15:33:14.382Z,2.50
2022-08-08T15:35:59.335Z,3.67
2022-08-08T15:38:26.431Z,4.05
2022-08-08T15:40:53.203Z,6.55
2022-08-08T15:43:36.062Z,2.47
2022-08-08T15:46:04.798Z,2.47
2022-08-08T15:48:31.556Z,3.28
2022-08-08T15:51:01.956Z,5.35
2022-08-08T15:53:40.236Z,2.75
2022-08-08T15:56:16.480Z,4.00
2022-08-08T15:58:48.749Z,2.28
2022-08-08T16:01:16.665Z,3.17
2022-08-08T16:03:46.115Z,3.95
2022-08-08T16:06:15.074Z,6.18
2022-08-08T16:09:02.211Z,6.70
2022-08-08T16:13:12.125Z,2.72
2022-08-08T16:14:33.750Z,5.85
2022-08-08T16:17:01.855Z,2.92
2022-08-08T16:19:30.173Z,2.83
2022-08-08T16:21:58.060Z,3.35
2022-08-08T16:24:24.823Z,2.53
2022-08-08T16:26:51.551Z,5.88
2022-08-08T16:29:23.807Z,2.25
2022-08-08T16:32:08.399Z,2.80
2022-08-08T16:34:40.480Z,3.15
2022-08-08T16:37:07.289Z,3.30
2022-08-08T16:40:01.559Z,2.55
2022-08-08T16:42:20.930Z,3.47
2022-08-08T16:44:54.326Z,2.10
2022-08-08T16:47:40.175Z,2.58
2022-08-08T16:50:15.838Z,4.18
2022-08-08T16:55:19.334Z,4.32
2022-08-08T16:55:55.628Z,2.47
2022-08-08T16:58:26.970Z,3.42
2022-08-08T17:00:59.277Z,4.72
2022-08-08T17:04:00.043Z,2.67
2022-08-08T17:06:36.889Z,3.38
2022-08-08T17:09:02.429Z,2.55
2022-08-08T17:11:39.521Z,5.50
2022-08-08T17:14:19.178Z,2.17
2022-08-08T17:16:57.775Z,2.20
2022-08-08T17:19:29.617Z,4.55
2022-08-08T17:21:57.831Z,7.05
2022-08-08T17:24:29.938Z,3.50
2022-08-08T17:26:58.722Z,4.00
2022-08-08T17:29:26.952Z,2.40
2022-08-08T17:31:53.764Z,4.63
2022-08-08T17:34:48.796Z,2.58
2022-08-08T17:37:11.095Z,3.40
2022-08-08T17:40:02.947Z,3.03
2022-08-08T17:42:26.363Z,2.42
2022-08-08T17:44:53.325Z,4.95
2022-08-08T17:47:37.561Z,4.90
2022-08-08T17:50:08.352Z,5.05
2022-08-08T17:52:38.028Z,3.33
2022-08-08T17:56:03.295Z,5.15
2022-08-08T17:57:53.470Z,2.80
2022-08-08T18:00:25.861Z,2.65
2022-08-08T18:03:07.534Z,2.97
2022-08-08T18:05:48.443Z,3.40
2022-08-08T18:08:38.229Z,3.28
2022-08-08T18:11:15.320Z,3.83
2022-08-08T18:13:47.347Z,3.13
2022-08-08T18:16:16.932Z,2.45
2022-08-08T18:18:53.172Z,2.60
2022-08-08T18:21:35.160Z,2.78
2022-08-08T18:24:17.399Z,2.75
2022-08-08T18:26:54.587Z,3.25
2022-08-08T18:29:41.636Z,2.58
2022-08-08T18:32:09.614Z,4.93
2022-08-08T18:34:39.512Z,2.20
2022-08-08T18:37:09.321Z,2.40
2022-08-08T18:39:42.024Z,3.55
2022-08-08T18:42:14.283Z,3.10
2022-08-08T18:44:56.039Z,4.18
2022-08-08T18:47:26.588Z,2.95
2022-08-08T18:49:58.689Z,2.40
2022-08-08T18:52:27.255Z,4.00
2022-08-08T18:54:59.750Z,3.35
2022-08-08T18:57:41.953Z,2.40
2022-08-08T19:00:21.400Z,2.35
2022-08-08T19:03:04.146Z,3.25
2022-08-08T19:05:44.309Z,2.38
2022-08-08T19:08:24.402Z,2.97
2022-08-08T19:10:59.713Z,3.97
2022-08-08T19:13:53.480Z,4.10
2022-08-08T19:16:18.930Z,2.90
2022-08-08T19:21:31.218Z,3.25
2022-08-08T19:24:00.032Z,2.95
2022-08-08T19:26:30.445Z,5.03
2022-08-08T19:28:59.645Z,4.05
2022-08-08T19:31:31.276Z,3.45
2022-08-08T19:34:36.340Z,5.78
2022-08-08T19:36:58.425Z,4.78
2022-08-08T19:39:34.747Z,3.17
2022-08-08T19:42:03.494Z,3.58
2022-08-08T19:44:43.349Z,4.38
2022-08-08T19:47:14.083Z,4.57
2022-08-08T19:49:43.153Z,6.25
2022-08-08T19:52:13.483Z,8.10
2022-08-08T19:54:40.436Z,4.95
2022-08-08T19:57:10.058Z,4.83
2022-08-08T19:59:41.990Z,4.43
2022-08-08T20:02:10.706Z,5.50
2022-08-08T20:04:38.471Z,5.43
2022-08-08T20:08:30.517Z,5.60
2022-08-08T20:09:58.622Z,8.23
2022-08-08T20:12:32.087Z,6.72
2022-08-08T20:15:14.967Z,5.20
2022-08-08T20:17:45.985Z,6.82
2022-08-08T20:20:16.042Z,8.98
2022-08-08T20:22:48.668Z,11.15
2022-08-08T20:25:17.422Z,9.45
2022-08-08T20:27:50.560Z,9.13
2022-08-08T20:30:53.077Z,10.35
2022-08-08T20:33:18.748Z,10.15
2022-08-08T20:35:57.016Z,8.48
2022-08-08T20:38:29.291Z,8.70
2022-08-08T20:40:59.386Z,8.70
2022-08-08T20:43:43.467Z,8.63
2022-08-08T20:46:13.301Z,8.27
2022-08-08T20:48:40.974Z,8.27
2022-08-08T20:51:08.760Z,6.75
2022-08-08T20:54:01.131Z,7.97
2022-08-08T20:56:35.289Z,8.57
2022-08-08T20:59:10.107Z,8.18
2022-08-08T21:02:05.569Z,7.55
2022-08-08T21:04:27.341Z,8.82
2022-08-08T21:06:55.158Z,7.68
2022-08-08T21:09:22.160Z,9.35
2022-08-08T21:11:50.419Z,9.13
2022-08-08T21:14:30.200Z,7.72
2022-08-08T21:17:00.099Z,6.68
2022-08-08T21:19:26.850Z,7.45
2022-08-08T21:22:11.511Z,7.65
2022-08-08T21:24:39.653Z,8.40
2022-08-08T21:27:39.009Z,6.30
2022-08-08T21:30:05.692Z,6.93
2022-08-08T21:32:37.468Z,7.93
2022-08-08T21:36:18.002Z,7.75
2022-08-08T21:37:54.229Z,6.57
2022-08-08T21:40:31.504Z,7.70
2022-08-08T21:42:59.187Z,6.03
2022-08-08T21:48:00.923Z,6.40
2022-08-08T21:48:21.930Z,6.70
2022-08-08T21:50:58.152Z,7.25
2022-08-08T21:54:31.917Z,6.38
2022-08-08T21:56:19.152Z,8.20
2022-08-08T21:59:00.328Z,6.63
2022-08-08T22:01:41.193Z,6.65
2022-08-08T22:04:11.367Z,6.10
2022-08-08T22:06:40.320Z,6.22
2022-08-08T22:09:09.516Z,6.53
2022-08-08T22:12:02.367Z,7.28
2022-08-08T22:14:26.455Z,6.18
2022-08-08T22:16:54.261Z,7.47
2022-08-08T22:19:23.989Z,7.22
2022-08-08T22:21:51.913Z,5.88
2022-08-08T22:24:23.826Z,6.93
2022-08-08T22:27:01.857Z,6.18
2022-08-08T22:29:59.395Z,6.57
2022-08-08T22:32:18.703Z,6.35
2022-08-08T22:34:51.035Z,6.32
2022-08-08T22:37:49.077Z,6.45
2022-08-08T22:40:11.733Z,8.50
2022-08-08T22:42:47.212Z,6.68
2022-08-08T22:45:14.825Z,6.85
2022-08-08T22:47:47.255Z,7.22
2022-08-08T22:50:26.097Z,6.50
2022-08-08T22:54:31.405Z,7.28
2022-08-08T22:55:59.159Z,8.20
2022-08-08T22:58:33.803Z,6.70
2022-08-08T23:01:26.861Z,6.22
2022-08-08T23:03:53.965Z,6.97
2022-08-08T23:06:21.953Z,6.45
2022-08-08T23:08:55.286Z,6.82
2022-08-08T23:11:30.511Z,6.53
2022-08-08T23:14:14.958Z,6.00
2022-08-08T23:16:47.016Z,6.20
2022-08-08T23:19:17.587Z,5.97
2022-08-08T23:21:46.866Z,5.80
2022-08-08T23:24:13.823Z,7.38
2022-08-08T23:26:55.473Z,6.32
2022-08-08T23:29:25.165Z,7.22
2022-08-08T23:31:52.502Z,7.32
2022-08-08T23:34:20.062Z,6.57
2022-08-08T23:36:47.972Z,6.32
2022-08-08T23:39:15.612Z,10.52
2022-08-08T23:41:46.265Z,7.15
2022-08-08T23:44:18.490Z,8.02
2022-08-08T23:49:08.352Z,6.10
2022-08-08T23:49:35.979Z,6.40
2022-08-08T23:52:05.323Z,6.13
2022-08-08T23:54:42.201Z,6.00
2022-08-08T23:57:26.907Z,6.05
